M I D A S
Marine Information and Data Acquisition System
Tripno 2081 of the Zeeleeuw from 2011-04-20 06:41:16 to 2011-04-20 14:45:01
Back to CruiseResearch ActivitiesStationsMapUnderway DataData graphs

EquipmentUnitsComments
TimeDGPSUTC
LatitudeDGPSDM.mWGS84
LongitudeDGPSDM.mWGS84
SpeedMeteo Stationm/sRelative wind speed
DirectionMeteo StationdegRelative wind direction
TemperatureMeteo Stationdeg CelciusAir temperature
PressureMeteo StationPaAtmospheric pressure
HumidityMeteo Station%Relative humidity
Missing or incorrect values are displayed as -999
Metereological data collected by the RV Zeeleeuw from 2011-04-20 06:39:02 to 2011-04-20 14:47:07
Time Latitude Longitude Speed Direction Temperature Pressure Humidity
2011-04-20 06:40 51°13.677 2°55.892 -999 36 13.6 101480 39
2011-04-20 06:41 51°13.69 2°55.798 -999 31 13.6 101480 38
2011-04-20 06:42 51°13.692 2°55.742 -999 2 13.6 101480 37
2011-04-20 06:43 51°13.709 2°55.748 -999 14 13.5 101480 39
2011-04-20 06:44 51°13.752 2°55.716 -999 346 13.5 101480 39
2011-04-20 06:45 51°13.862 2°55.614 -999 339 13.4 101480 39
2011-04-20 06:46 51°14.02 2°55.501 -999 339 13.4 101480 39
2011-04-20 06:47 51°14.186 2°55.369 -999 338 13.4 101480 38
2011-04-20 06:48 51°14.303 2°55.253 -999 343 13.5 101480 39
2011-04-20 06:49 51°14.381 2°55.174 -999 43 13.5 101480 39
2011-04-20 06:50 51°14.459 2°55.087 -999 4 13.5 101480 37
2011-04-20 06:51 51°14.574 2°54.89 -999 333 13.6 101480 39
2011-04-20 06:52 51°14.705 2°54.622 -999 332 13.6 101480 39
2011-04-20 06:53 51°14.839 2°54.339 -999 334 13.6 101480 39
2011-04-20 06:54 51°15.003 2°54.12 -999 339 13.5 101480 39
2011-04-20 06:55 51°15.167 2°53.897 -999 338 13.5 101490 39
2011-04-20 06:56 51°15.357 2°53.74 -999 340 13.4 101480 39
2011-04-20 06:57 51°15.551 2°53.587 -999 342 13.4 101480 39
2011-04-20 06:58 51°15.757 2°53.52 -999 340 13.4 101480 38
2011-04-20 06:59 51°15.959 2°53.39 -999 340 13.4 101480 40
2011-04-20 07:00 51°16.153 2°53.26 -999 342 13.4 101480 40
2011-04-20 07:01 51°16.354 2°53.116 -999 343 13.4 101480 40
2011-04-20 07:02 51°16.548 2°52.974 -999 344 13.3 101480 41
2011-04-20 07:03 51°16.743 2°52.828 -999 346 13.1 101480 41
2011-04-20 07:04 51°16.932 2°52.682 -999 346 13 101480 41
2011-04-20 07:05 51°17.126 2°52.531 -999 348 12.9 101480 42
2011-04-20 07:06 51°17.317 2°52.379 -999 348 12.8 101480 41
2011-04-20 07:07 51°17.504 2°52.218 -999 348 12.7 101480 43
2011-04-20 07:08 51°17.703 2°52.074 -999 348 12.6 101480 44
2011-04-20 07:09 51°17.893 2°51.919 -999 348 12.6 101480 45
2011-04-20 07:10 51°18.087 2°51.773 -999 349 12.5 101490 45
2011-04-20 07:11 51°18.278 2°51.619 -999 349 12.4 101480 46
2011-04-20 07:12 51°18.474 2°51.458 -999 349 12.4 101480 46
2011-04-20 07:13 51°18.667 2°51.31 -999 348 12.3 101480 46
2011-04-20 07:14 51°18.861 2°51.151 -999 348 12.3 101480 45
2011-04-20 07:15 51°19.055 2°50.99 -999 347 12.3 101480 46
2011-04-20 07:16 51°19.251 2°50.827 -999 347 12.3 101480 46
2011-04-20 07:17 51°19.45 2°50.667 -999 348 12.4 101490 46
2011-04-20 07:18 51°19.644 2°50.521 -999 348 12.4 101490 46
2011-04-20 07:19 51°19.846 2°50.363 -999 347 12.4 101490 46
2011-04-20 07:20 51°20.042 2°50.214 -999 347 12.4 101490 46
2011-04-20 07:21 51°20.241 2°50.062 -999 347 12.4 101490 46
2011-04-20 07:22 51°20.44 2°49.917 -999 346 12.4 101490 44
2011-04-20 07:23 51°20.64 2°49.766 -999 346 12.5 101490 46
2011-04-20 07:24 51°20.84 2°49.615 -999 345 12.5 101480 46
2011-04-20 07:25 51°21.039 2°49.461 -999 346 12.6 101490 46
2011-04-20 07:26 51°21.24 2°49.303 -999 345 12.6 101490 46
2011-04-20 07:27 51°21.437 2°49.153 -999 347 12.6 101490 45
2011-04-20 07:28 51°21.641 2°48.996 -999 346 12.6 101490 45
2011-04-20 07:29 51°21.84 2°48.843 -999 347 12.5 101490 45
2011-04-20 07:30 51°22.047 2°48.688 -999 346 12.6 101490 44
2011-04-20 07:31 51°22.247 2°48.541 -999 348 12.5 101490 45
2011-04-20 07:32 51°22.451 2°48.39 -999 349 12.4 101490 46
2011-04-20 07:33 51°22.652 2°48.242 -999 349 12.4 101490 46
2011-04-20 07:34 51°22.852 2°48.099 -999 347 12.3 101490 46
2011-04-20 07:35 51°23.051 2°47.952 -999 349 12.3 101490 46
2011-04-20 07:36 51°23.249 2°47.801 -999 350 12.2 101490 46
2011-04-20 07:37 51°23.451 2°47.652 -999 349 12.2 101490 46
2011-04-20 07:38 51°23.645 2°47.502 -999 349 12.2 101500 44
2011-04-20 07:39 51°23.846 2°47.347 -999 349 12.2 101500 46
2011-04-20 07:40 51°24.04 2°47.195 -999 350 12.1 101490 46
2011-04-20 07:41 51°24.237 2°47.041 -999 350 12.1 101500 46
2011-04-20 07:42 51°24.435 2°46.889 -999 349 12.1 101500 46
2011-04-20 07:43 51°24.632 2°46.737 -999 349 12.1 101490 46
2011-04-20 07:44 51°24.832 2°46.581 -999 349 12 101500 46
2011-04-20 07:45 51°25.026 2°46.432 -999 349 12 101490 46
2011-04-20 07:46 51°25.228 2°46.277 -999 349 12 101500 45
2011-04-20 07:47 51°25.424 2°46.125 -999 349 12 101500 46
2011-04-20 07:48 51°25.627 2°45.972 -999 348 11.9 101490 46
2011-04-20 07:49 51°25.822 2°45.825 -999 347 11.9 101490 46
2011-04-20 07:50 51°26.024 2°45.674 -999 347 12 101490 46
2011-04-20 07:51 51°26.218 2°45.527 -999 347 12 101490 46
2011-04-20 07:52 51°26.418 2°45.379 -999 346 11.9 101500 46
2011-04-20 07:53 51°26.617 2°45.234 -999 346 11.9 101500 46
2011-04-20 07:54 51°26.812 2°45.084 -999 347 11.9 101500 45
2011-04-20 07:55 51°27.009 2°44.933 -999 346 11.9 101500 46
2011-04-20 07:56 51°27.201 2°44.786 -999 344 11.9 101500 46
2011-04-20 07:57 51°27.4 2°44.636 -999 345 11.9 101500 46
2011-04-20 07:58 51°27.592 2°44.49 -999 341 11.9 101500 46
2011-04-20 07:59 51°27.791 2°44.339 -999 342 11.9 101500 46
2011-04-20 08:00 51°27.985 2°44.196 -999 341 11.9 101500 46
2011-04-20 08:01 51°28.184 2°44.046 -999 343 12 101500 46
2011-04-20 08:02 51°28.376 2°43.903 -999 343 12 101500 45
2011-04-20 08:03 51°28.574 2°43.759 -999 343 12 101500 46
2011-04-20 08:04 51°28.773 2°43.614 -999 346 11.9 101500 45
2011-04-20 08:05 51°28.964 2°43.475 -999 346 11.9 101500 46
2011-04-20 08:06 51°29.156 2°43.327 -999 346 11.8 101510 45
2011-04-20 08:07 51°29.343 2°43.199 -999 346 11.8 101510 45
2011-04-20 08:08 51°29.542 2°43.158 -999 346 11.7 101510 46
2011-04-20 08:09 51°29.725 2°43.243 6.5 345 11.7 101500 46
2011-04-20 08:10 51°29.915 2°43.306 5.9 348 11.7 101500 44
2011-04-20 08:11 51°30.111 2°43.321 7.4 346 11.6 101500 45
2011-04-20 08:12 51°30.3 2°43.392 6.7 345 11.6 101510 46
2011-04-20 08:13 51°30.489 2°43.466 7.8 347 11.6 101500 46
2011-04-20 08:14 51°30.672 2°43.541 7.9 347 11.5 101510 46
2011-04-20 08:15 51°30.846 2°43.669 8.1 348 11.5 101500 45
2011-04-20 08:16 51°31.025 2°43.759 6.4 348 11.5 101510 46
2011-04-20 08:17 51°31.21 2°43.852 6.4 348 11.5 101510 45
2011-04-20 08:18 51°31.386 2°43.949 8.5 345 11.5 101500 45
2011-04-20 08:19 51°31.568 2°44.043 6 349 11.5 101500 45
2011-04-20 08:20 51°31.737 2°44.157 6.2 349 11.5 101500 46
2011-04-20 08:21 51°31.913 2°44.265 5.6 350 11.5 101500 45
2011-04-20 08:22 51°32.097 2°44.338 7 347 11.5 101500 45
2011-04-20 08:23 51°32.259 2°44.486 6.6 347 11.5 101500 46
2011-04-20 08:24 51°32.433 2°44.6 6.5 349 11.5 101500 45
2011-04-20 08:25 51°32.613 2°44.696 6.5 349 11.5 101500 46
2011-04-20 08:26 51°32.794 2°44.8 7.1 350 11.5 101500 44
2011-04-20 08:27 51°32.969 2°44.897 5.6 351 11.5 101500 45
2011-04-20 08:28 51°33.163 2°44.919 6.3 352 11.5 101500 45
2011-04-20 08:29 51°33.343 2°44.969 6.5 349 11.5 101500 45
2011-04-20 08:30 51°33.516 2°45.079 7.4 349 11.5 101500 45
2011-04-20 08:31 51°33.692 2°45.18 7.2 350 11.5 101500 44
2011-04-20 08:32 51°33.869 2°45.283 7.3 350 11.5 101500 45
2011-04-20 08:33 51°34.053 2°45.363 6.6 349 11.5 101500 45
2011-04-20 08:34 51°34.242 2°45.369 4.7 349 11.4 101510 44
2011-04-20 08:35 51°34.383 2°45.288 0.7 32 11.4 101510 45
2011-04-20 08:36 51°34.394 2°45.198 -999 25 11.4 101520 45
2011-04-20 08:37 51°34.39 2°45.111 -999 24 11.7 101520 46
2011-04-20 08:38 51°34.383 2°45.033 -999 24 11.8 101520 45
2011-04-20 08:39 51°34.372 2°44.96 -999 24 11.9 101510 45
2011-04-20 08:40 51°34.36 2°44.894 0.1 24 12 101510 45
2011-04-20 08:41 51°34.346 2°44.825 0.1 19 12 101510 45
2011-04-20 08:42 51°34.339 2°44.681 0.1 14 12.1 101510 43
2011-04-20 08:43 51°34.367 2°44.414 0.1 338 12.2 101510 45
2011-04-20 08:44 51°34.477 2°44.131 0.8 346 12.2 101510 44
2011-04-20 08:45 51°34.657 2°44.018 4.9 347 12 101510 45
2011-04-20 08:46 51°34.849 2°44.033 6.7 346 11.8 101500 44
2011-04-20 08:47 51°35.009 2°44.174 7.3 346 11.7 101500 44
2011-04-20 08:48 51°35.165 2°44.33 7.7 343 11.7 101500 44
2011-04-20 08:49 51°35.291 2°44.546 7.2 341 11.8 101490 44
2011-04-20 08:50 51°35.392 2°44.799 7.8 341 11.8 101500 44
2011-04-20 08:51 51°35.5 2°45.044 8.1 340 11.8 101500 45
2011-04-20 08:52 51°35.622 2°45.265 7.5 342 11.9 101490 44
2011-04-20 08:53 51°35.764 2°45.467 7.9 342 11.9 101500 45
2011-04-20 08:54 51°35.91 2°45.645 7 342 11.9 101500 44
2011-04-20 08:55 51°36.041 2°45.866 7.3 340 11.9 101500 45
2011-04-20 08:56 51°36.141 2°46.113 8 338 11.9 101500 45
2011-04-20 08:57 51°36.236 2°46.368 7.7 338 11.9 101490 45
2011-04-20 08:58 51°36.35 2°46.601 7.5 337 12 101490 43
2011-04-20 08:59 51°36.462 2°46.831 8.5 338 11.9 101500 44
2011-04-20 09:00 51°36.597 2°47.024 6.7 340 12 101500 45
2011-04-20 09:01 51°36.744 2°47.192 7.1 341 12 101500 44
2011-04-20 09:02 51°36.906 2°47.335 7.8 340 12 101500 44
2011-04-20 09:03 51°37.074 2°47.441 5.6 340 12 101500 44
2011-04-20 09:04 51°37.243 2°47.558 7.9 341 12 101500 44
2011-04-20 09:05 51°37.392 2°47.714 7.7 340 12 101500 44
2011-04-20 09:06 51°37.551 2°47.85 5.5 340 12 101500 43
2011-04-20 09:07 51°37.702 2°48.004 7.4 342 12.1 101500 45
2011-04-20 09:08 51°37.864 2°48.135 7 341 12.1 101500 45
2011-04-20 09:09 51°38.018 2°48.286 7.6 341 12.2 101510 44
2011-04-20 09:10 51°38.179 2°48.419 5.5 342 12.2 101500 44
2011-04-20 09:11 51°38.345 2°48.546 5.6 340 12.2 101510 44
2011-04-20 09:12 51°38.501 2°48.683 6.2 340 12.2 101510 43
2011-04-20 09:13 51°38.667 2°48.813 5.3 339 12.2 101510 44
2011-04-20 09:14 51°38.827 2°48.938 5.5 340 12.2 101510 43
2011-04-20 09:15 51°38.995 2°49.062 6.2 339 12.2 101520 43
2011-04-20 09:16 51°39.151 2°49.2 6.7 340 12.3 101510 43
2011-04-20 09:17 51°39.315 2°49.327 6.1 341 12.3 101510 44
2011-04-20 09:18 51°39.484 2°49.433 5.5 341 12.3 101510 43
2011-04-20 09:19 51°39.662 2°49.507 6.3 340 12.4 101510 44
2011-04-20 09:20 51°39.837 2°49.612 7 341 12.4 101510 44
2011-04-20 09:21 51°40.003 2°49.725 6.4 341 12.4 101510 44
2011-04-20 09:22 51°40.182 2°49.82 7.4 341 12.4 101510 42
2011-04-20 09:23 51°40.362 2°49.871 5.9 341 12.4 101510 43
2011-04-20 09:24 51°40.55 2°49.919 7 341 12.3 101510 43
2011-04-20 09:25 51°40.727 2°49.986 6.9 339 12.2 101510 45
2011-04-20 09:26 51°40.902 2°50.077 7.1 339 12.2 101520 45
2011-04-20 09:27 51°41.082 2°50.133 7.2 341 12.1 101520 45
2011-04-20 09:28 51°41.268 2°50.148 5.7 343 12 101520 45
2011-04-20 09:29 51°41.454 2°50.113 5.1 346 12 101510 44
2011-04-20 09:30 51°41.6 2°49.88 3.5 343 11.9 101520 44
2011-04-20 09:31 51°41.75 2°49.642 4 343 11.8 101520 46
2011-04-20 09:32 51°41.913 2°49.434 4 345 11.8 101520 44
2011-04-20 09:33 51°42.082 2°49.236 5.4 345 11.8 101520 44
2011-04-20 09:34 51°42.236 2°49.01 3.7 345 11.8 101520 45
2011-04-20 09:35 51°42.363 2°48.725 0.1 342 11.8 101520 45
2011-04-20 09:36 51°42.404 2°48.367 0.1 318 11.8 101520 45
2011-04-20 09:37 51°42.259 2°48.059 5.7 316 11.9 101510 45
2011-04-20 09:38 51°42.031 2°47.907 6.5 317 11.9 101510 43
2011-04-20 09:39 51°41.804 2°47.739 7.1 316 12 101510 43
2011-04-20 09:40 51°41.576 2°47.572 6.8 25 12.1 101510 44
2011-04-20 09:41 51°41.356 2°47.381 7.2 23 12.2 101510 44
2011-04-20 09:42 51°41.139 2°47.182 7.2 23 12.3 101510 44
2011-04-20 09:43 51°40.908 2°47.026 7.3 20 12.4 101510 43
2011-04-20 09:44 51°40.68 2°46.869 7.7 28 12.4 101500 43
2011-04-20 09:45 51°40.451 2°46.715 7.1 27 12.5 101500 42
2011-04-20 09:46 51°40.219 2°46.568 6.7 315 12.5 101500 42
2011-04-20 09:47 51°39.986 2°46.433 7.1 315 12.5 101500 42
2011-04-20 09:48 51°39.749 2°46.323 7.3 317 12.5 101510 43
2011-04-20 09:49 51°39.509 2°46.233 8.3 315 12.6 101500 43
2011-04-20 09:50 51°39.272 2°46.124 7 315 12.7 101500 43
2011-04-20 09:51 51°39.032 2°46.029 8 316 12.7 101500 43
2011-04-20 09:52 51°38.794 2°45.929 7.6 315 12.7 101500 42
2011-04-20 09:53 51°38.556 2°45.83 8.2 316 12.8 101500 43
2011-04-20 09:54 51°38.319 2°45.747 8.6 316 12.9 101500 40
2011-04-20 09:55 51°38.083 2°45.652 7.8 317 12.9 101500 41
2011-04-20 09:56 51°37.843 2°45.583 8.1 317 12.9 101500 42
2011-04-20 09:57 51°37.603 2°45.517 7.5 316 12.9 101500 42
2011-04-20 09:58 51°37.371 2°45.383 7.2 316 12.8 101510 43
2011-04-20 09:59 51°37.137 2°45.259 6.8 315 12.8 101510 42
2011-04-20 10:00 51°36.903 2°45.137 6.5 316 12.8 101500 42
2011-04-20 10:01 51°36.667 2°45.013 6.8 316 12.7 101500 43
2011-04-20 10:02 51°36.432 2°44.89 6.9 317 12.7 101500 42
2011-04-20 10:03 51°36.198 2°44.771 6.4 316 12.7 101500 43
2011-04-20 10:04 51°35.964 2°44.651 7 318 12.7 101500 43
2011-04-20 10:05 51°35.727 2°44.557 7.2 316 12.7 101500 43
2011-04-20 10:06 51°35.498 2°44.412 7 317 12.8 101500 43
2011-04-20 10:07 51°35.263 2°44.29 6.9 317 12.8 101500 43
2011-04-20 10:08 51°35.028 2°44.164 5.8 317 12.8 101500 43
2011-04-20 10:09 51°34.797 2°44.019 6.5 317 12.9 101500 44
2011-04-20 10:10 51°34.57 2°43.857 7.1 317 12.9 101500 43
2011-04-20 10:11 51°34.331 2°43.774 7.9 319 12.9 101500 44
2011-04-20 10:12 51°34.095 2°43.672 6.1 316 12.9 101500 44
2011-04-20 10:13 51°33.868 2°43.526 6.4 316 12.9 101500 44
2011-04-20 10:14 51°33.644 2°43.363 6.2 316 12.9 101500 44
2011-04-20 10:15 51°33.417 2°43.216 6.2 316 12.9 101500 43
2011-04-20 10:16 51°33.234 2°42.976 4.2 316 12.8 101510 45
2011-04-20 10:17 51°33.134 2°42.621 4 318 12.8 101510 45
2011-04-20 10:18 51°33.021 2°42.273 4.1 315 12.8 101510 44
2011-04-20 10:19 51°32.867 2°41.96 4.4 29 12.9 101510 43
2011-04-20 10:20 51°32.706 2°41.654 5.3 28 12.9 101500 44
2011-04-20 10:21 51°32.569 2°41.321 4.5 23 12.9 101510 45
2011-04-20 10:22 51°32.461 2°40.965 3.9 26 12.9 101510 43
2011-04-20 10:23 51°32.378 2°40.598 3 317 12.9 101500 43
2011-04-20 10:24 51°32.363 2°40.224 -999 337 12.9 101510 44
2011-04-20 10:25 51°32.507 2°40.066 6.6 346 12.8 101500 43
2011-04-20 10:26 51°32.626 2°40.267 9 341 12.6 101490 45
2011-04-20 10:27 51°32.761 2°40.45 8 345 12.5 101480 44
2011-04-20 10:28 51°32.922 2°40.581 6.8 343 12.4 101490 45
2011-04-20 10:29 51°33.077 2°40.723 7.5 347 12.4 101490 44
2011-04-20 10:30 51°33.258 2°40.768 7.3 346 12.3 101490 44
2011-04-20 10:31 51°33.435 2°40.846 6.4 346 12.3 101490 44
2011-04-20 10:32 51°33.603 2°40.959 7.7 346 12.3 101480 44
2011-04-20 10:33 51°33.758 2°41.109 6.7 346 12.3 101480 45
2011-04-20 10:34 51°33.917 2°41.25 8.8 346 12.3 101480 45
2011-04-20 10:35 51°34.084 2°41.367 8 347 12.2 101480 44
2011-04-20 10:36 51°34.254 2°41.479 6.1 346 12.2 101480 45
2011-04-20 10:37 51°34.425 2°41.585 6.7 347 12.2 101490 45
2011-04-20 10:38 51°34.6 2°41.683 7.1 345 12.1 101490 44
2011-04-20 10:39 51°34.772 2°41.778 9 346 12.1 101480 45
2011-04-20 10:40 51°34.946 2°41.876 7.9 347 12 101480 45
2011-04-20 10:41 51°35.124 2°41.955 7.1 346 11.9 101480 44
2011-04-20 10:42 51°35.299 2°42.055 9.1 347 11.8 101480 45
2011-04-20 10:43 51°35.484 2°42.102 6.9 345 11.7 101490 44
2011-04-20 10:44 51°35.665 2°42.178 8.8 345 11.6 101480 44
2011-04-20 10:45 51°35.845 2°42.269 8.6 344 11.5 101490 46
2011-04-20 10:46 51°36.026 2°42.362 8.6 345 11.5 101480 46
2011-04-20 10:47 51°36.21 2°42.439 9.1 345 11.4 101490 45
2011-04-20 10:48 51°36.389 2°42.533 9.1 349 11.4 101480 45
2011-04-20 10:49 51°36.573 2°42.604 8.2 347 11.4 101490 45
2011-04-20 10:50 51°36.747 2°42.715 8.8 348 11.5 101480 44
2011-04-20 10:51 51°36.922 2°42.818 7.5 353 11.8 101490 44
2011-04-20 10:52 51°37.106 2°42.889 9 344 12.1 101480 42
2011-04-20 10:53 51°37.285 2°42.983 9.2 346 12.1 101490 43
2011-04-20 10:54 51°37.459 2°43.097 9.7 344 12 101490 43
2011-04-20 10:55 51°37.628 2°43.229 8.7 344 11.9 101480 43
2011-04-20 10:56 51°37.802 2°43.347 9.5 345 11.8 101480 44
2011-04-20 10:57 51°37.977 2°43.455 9.2 344 11.7 101480 44
2011-04-20 10:58 51°38.149 2°43.578 8.8 347 11.6 101480 44
2011-04-20 10:59 51°38.326 2°43.681 8.7 347 11.7 101480 44
2011-04-20 11:00 51°38.509 2°43.763 9.8 348 11.7 101480 44
2011-04-20 11:01 51°38.688 2°43.855 8 349 11.9 101480 44
2011-04-20 11:02 51°38.877 2°43.922 9.9 350 11.9 101480 43
2011-04-20 11:03 51°39.059 2°43.983 9.7 349 12 101480 43
2011-04-20 11:04 51°39.244 2°44.068 8.2 350 12 101480 43
2011-04-20 11:05 51°39.422 2°44.152 8.2 348 12.1 101480 43
2011-04-20 11:06 51°39.601 2°44.252 10.2 351 12.2 101480 41
2011-04-20 11:07 51°39.789 2°44.299 7 350 12.3 101490 41
2011-04-20 11:08 51°39.97 2°44.393 10.2 351 12.5 101480 40
2011-04-20 11:09 51°40.145 2°44.51 10.2 348 12.6 101480 40
2011-04-20 11:10 51°40.323 2°44.612 9.7 346 12.5 101480 41
2011-04-20 11:11 51°40.504 2°44.711 7.6 349 12.2 101480 43
2011-04-20 11:12 51°40.675 2°44.846 9.8 348 12 101480 42
2011-04-20 11:13 51°40.857 2°44.943 10.2 351 11.9 101480 43
2011-04-20 11:14 51°41.036 2°45.051 7.4 349 11.9 101480 43
2011-04-20 11:15 51°41.215 2°45.164 9.9 350 11.9 101480 43
2011-04-20 11:16 51°41.394 2°45.274 6.4 351 12 101480 43
2011-04-20 11:17 51°41.584 2°45.338 8.9 350 12.1 101480 42
2011-04-20 11:18 51°41.775 2°45.422 9.3 349 12.1 101480 42
2011-04-20 11:19 51°41.953 2°45.531 7.2 347 12 101480 42
2011-04-20 11:20 51°42.135 2°45.636 7.8 348 11.9 101490 42
2011-04-20 11:21 51°42.319 2°45.74 9.2 348 11.8 101490 44
2011-04-20 11:22 51°42.504 2°45.836 7.2 349 11.7 101490 44
2011-04-20 11:23 51°42.69 2°45.93 8.7 352 11.6 101480 44
2011-04-20 11:24 51°42.878 2°46.014 7.2 352 11.7 101490 44
2011-04-20 11:25 51°43.059 2°46.13 7 353 11.8 101480 42
2011-04-20 11:26 51°43.235 2°46.071 0.8 359 11.9 101490 43
2011-04-20 11:27 51°43.377 2°45.825 0.5 356 11.9 101500 43
2011-04-20 11:28 51°43.533 2°45.602 1.5 353 12 101500 42
2011-04-20 11:29 51°43.694 2°45.389 2.8 351 12.1 101500 43
2011-04-20 11:30 51°43.852 2°45.173 2.3 344 12.1 101500 43
2011-04-20 11:31 51°44.007 2°44.946 -999 338 12.2 101500 42
2011-04-20 11:32 51°44.172 2°44.747 -999 335 12.2 101500 42
2011-04-20 11:33 51°44.346 2°44.575 -999 342 12.2 101500 42
2011-04-20 11:34 51°44.371 2°44.27 -999 317 12.3 101510 43
2011-04-20 11:35 51°44.173 2°44.124 8.7 320 12.6 101500 42
2011-04-20 11:36 51°43.939 2°44.05 8 319 12.8 101490 42
2011-04-20 11:37 51°43.71 2°43.93 6 319 13 101490 42
2011-04-20 11:38 51°43.485 2°43.799 8 322 13.1 101490 41
2011-04-20 11:39 51°43.251 2°43.762 7.1 321 13.1 101490 41
2011-04-20 11:40 51°43.019 2°43.68 6.5 318 13.1 101490 41
2011-04-20 11:41 51°42.791 2°43.574 7.7 320 13 101490 41
2011-04-20 11:42 51°42.564 2°43.463 6.6 318 13 101490 42
2011-04-20 11:43 51°42.338 2°43.345 5.4 319 13 101480 42
2011-04-20 11:44 51°42.114 2°43.314 8.4 320 13 101480 41
2011-04-20 11:45 51°41.883 2°43.318 6.7 320 13.1 101490 41
2011-04-20 11:46 51°41.66 2°43.205 5.6 319 13.1 101490 41
2011-04-20 11:47 51°41.448 2°43.045 6.4 316 13.1 101480 41
2011-04-20 11:48 51°41.243 2°42.859 5.5 317 13.1 101480 41
2011-04-20 11:49 51°41.042 2°42.665 6.1 316 13.1 101480 41
2011-04-20 11:50 51°40.815 2°42.617 6.5 319 13.2 101480 42
2011-04-20 11:51 51°40.582 2°42.589 6.6 316 13.2 101480 41
2011-04-20 11:52 51°40.359 2°42.473 5.7 318 13.3 101480 41
2011-04-20 11:53 51°40.153 2°42.295 5.2 20 13.4 101480 42
2011-04-20 11:54 51°39.958 2°42.089 5.7 316 13.5 101480 40
2011-04-20 11:55 51°39.747 2°41.932 5.3 315 13.5 101480 41
2011-04-20 11:56 51°39.519 2°41.856 6.3 25 13.5 101470 40
2011-04-20 11:57 51°39.291 2°41.855 7.2 316 13.5 101470 41
2011-04-20 11:58 51°39.06 2°41.854 5.2 316 13.5 101470 41
2011-04-20 11:59 51°38.839 2°41.742 4.6 319 13.4 101480 40
2011-04-20 12:00 51°38.632 2°41.574 4.8 318 13.4 101480 40
2011-04-20 12:01 51°38.427 2°41.407 4.7 320 13.4 101480 42
2011-04-20 12:02 51°38.227 2°41.226 4.8 319 13.4 101480 41
2011-04-20 12:03 51°38.041 2°41.018 3.5 323 13.4 101480 42
2011-04-20 12:04 51°37.88 2°40.767 4.8 331 13.3 101480 42
2011-04-20 12:05 51°37.74 2°40.489 4.1 335 13.1 101480 42
2011-04-20 12:06 51°37.557 2°40.292 4.5 325 13 101480 42
2011-04-20 12:07 51°37.337 2°40.238 4.8 320 13.1 101470 42
2011-04-20 12:08 51°37.111 2°40.213 6.3 21 13.1 101470 42
2011-04-20 12:09 51°36.892 2°40.136 5.7 28 13.2 101470 42
2011-04-20 12:10 51°36.681 2°40.019 4.4 19 13.4 101470 39
2011-04-20 12:11 51°36.464 2°39.936 5.8 27 13.5 101460 41
2011-04-20 12:12 51°36.245 2°39.871 5.3 24 13.7 101460 40
2011-04-20 12:13 51°36.029 2°39.783 4.9 27 13.8 101460 40
2011-04-20 12:14 51°35.81 2°39.742 5.3 22 13.7 101470 40
2011-04-20 12:15 51°35.589 2°39.701 5.2 27 13.7 101460 41
2011-04-20 12:16 51°35.369 2°39.687 4.8 317 13.7 101460 40
2011-04-20 12:17 51°35.162 2°39.578 4 325 13.6 101460 40
2011-04-20 12:18 51°34.951 2°39.482 4.2 322 13.5 101460 40
2011-04-20 12:19 51°34.747 2°39.362 4.3 321 13.5 101460 41
2011-04-20 12:20 51°34.536 2°39.275 4.2 320 13.6 101460 42
2011-04-20 12:21 51°34.334 2°39.152 4.2 318 13.6 101460 41
2011-04-20 12:22 51°34.121 2°39.079 4.3 316 13.7 101460 41
2011-04-20 12:23 51°33.918 2°38.962 4.7 23 13.9 101460 41
2011-04-20 12:24 51°33.705 2°38.895 4.9 22 13.9 101460 41
2011-04-20 12:25 51°33.498 2°38.789 4.4 26 13.9 101460 40
2011-04-20 12:26 51°33.289 2°38.697 4.4 25 13.9 101460 41
2011-04-20 12:27 51°33.084 2°38.595 4 22 13.9 101460 40
2011-04-20 12:28 51°32.88 2°38.489 3.8 30 13.9 101450 40
2011-04-20 12:29 51°32.68 2°38.37 3.9 26 13.9 101450 41
2011-04-20 12:30 51°32.477 2°38.261 4.5 27 13.8 101450 42
2011-04-20 12:31 51°32.268 2°38.173 3.5 21 13.7 101450 41
2011-04-20 12:32 51°32.069 2°38.058 3.5 25 13.6 101450 42
2011-04-20 12:33 51°31.861 2°37.994 3.8 28 13.6 101450 42
2011-04-20 12:34 51°31.665 2°37.874 2.6 20 13.7 101450 42
2011-04-20 12:35 51°31.466 2°37.771 -999 319 13.6 101450 42
2011-04-20 12:36 51°31.275 2°37.652 -999 317 13.6 101450 42
2011-04-20 12:37 51°31.086 2°37.522 2.8 20 13.5 101450 42
2011-04-20 12:38 51°30.882 2°37.444 2.5 23 13.5 101440 42
2011-04-20 12:39 51°30.687 2°37.327 -999 24 13.6 101440 42
2011-04-20 12:40 51°30.485 2°37.235 3.6 25 13.7 101440 41
2011-04-20 12:41 51°30.284 2°37.143 0.2 317 13.8 101440 42
2011-04-20 12:42 51°30.091 2°37.021 -999 316 13.8 101430 42
2011-04-20 12:43 51°29.89 2°36.929 -999 318 13.7 101440 42
2011-04-20 12:44 51°29.697 2°36.81 -999 315 13.7 101440 42
2011-04-20 12:45 51°29.492 2°36.741 -999 24 13.6 101440 42
2011-04-20 12:46 51°29.286 2°36.691 -999 24 13.6 101440 42
2011-04-20 12:47 51°29.079 2°36.724 -999 24 13.7 101430 42
2011-04-20 12:48 51°28.891 2°36.91 -999 24 13.6 101430 42
2011-04-20 12:49 51°28.822 2°37.068 -999 24 13.6 101430 42
2011-04-20 12:50 51°28.841 2°37.186 -999 330 13.7 101430 42
2011-04-20 12:51 51°28.879 2°37.267 -999 334 13.6 101430 41
2011-04-20 12:52 51°28.924 2°37.347 -999 336 13.6 101430 42
2011-04-20 12:53 51°29.014 2°37.405 -999 349 13.5 101420 42
2011-04-20 12:54 51°29.102 2°37.367 -999 3 13.2 101430 42
2011-04-20 12:55 51°29.145 2°37.323 2.5 19 13.1 101430 42
2011-04-20 12:56 51°29.152 2°37.268 -999 37 13 101430 43
2011-04-20 12:57 51°29.127 2°37.202 -999 24 13 101430 44
2011-04-20 12:58 51°29.084 2°37.162 -999 24 13 101430 43
2011-04-20 12:59 51°29.045 2°37.162 2.3 29 13.2 101420 44
2011-04-20 13:00 51°29.012 2°37.196 3.7 257 13.3 101420 43
2011-04-20 13:01 51°28.994 2°37.293 4.9 21 13.5 101420 44
2011-04-20 13:02 51°29.044 2°37.402 5.3 344 13.6 101410 43
2011-04-20 13:03 51°29.121 2°37.364 -999 354 13.4 101410 42
2011-04-20 13:04 51°29.237 2°37.244 -999 346 13.1 101400 43
2011-04-20 13:05 51°29.354 2°37.297 -999 335 13.1 101410 44
2011-04-20 13:06 51°29.452 2°37.435 -999 328 13.1 101410 44
2011-04-20 13:07 51°29.52 2°37.564 -999 24 13.2 101410 44
2011-04-20 13:08 51°29.541 2°37.68 -999 246 13.2 101410 43
2011-04-20 13:09 51°29.52 2°37.776 -999 26 13.2 101410 43
2011-04-20 13:10 51°29.412 2°37.782 -999 323 13.2 101420 44
2011-04-20 13:11 51°29.219 2°37.811 -999 331 13.2 101420 44
2011-04-20 13:12 51°29.017 2°37.869 -999 327 13.3 101410 44
2011-04-20 13:13 51°28.821 2°37.969 -999 319 13.4 101420 44
2011-04-20 13:14 51°28.629 2°38.117 -999 315 13.4 101410 44
2011-04-20 13:15 51°28.461 2°38.331 -999 24 13.4 101410 43
2011-04-20 13:16 51°28.287 2°38.534 -999 24 13.4 101410 44
2011-04-20 13:17 51°28.117 2°38.741 -999 24 13.3 101400 43
2011-04-20 13:18 51°27.962 2°38.986 -999 24 13.3 101400 43
2011-04-20 13:19 51°27.796 2°39.211 -999 24 13.4 101400 43
2011-04-20 13:20 51°27.612 2°39.38 -999 24 13.4 101400 43
2011-04-20 13:21 51°27.442 2°39.589 -999 24 13.5 101400 42
2011-04-20 13:22 51°27.264 2°39.779 -999 24 13.6 101390 42
2011-04-20 13:23 51°27.08 2°39.952 -999 24 13.6 101390 42
2011-04-20 13:24 51°26.895 2°40.122 -999 24 13.7 101390 42
2011-04-20 13:25 51°26.702 2°40.263 -999 24 13.8 101390 42
2011-04-20 13:26 51°26.508 2°40.398 -999 24 13.9 101390 42
2011-04-20 13:27 51°26.323 2°40.546 -999 316 13.9 101390 41
2011-04-20 13:28 51°26.148 2°40.718 -999 315 14 101390 42
2011-04-20 13:29 51°25.971 2°40.882 -999 24 14.1 101390 42
2011-04-20 13:30 51°25.796 2°41.056 -999 24 14.2 101380 41
2011-04-20 13:31 51°25.644 2°41.29 -999 24 14.5 101370 41
2011-04-20 13:32 51°25.494 2°41.534 -999 24 14.8 101370 40
2011-04-20 13:33 51°25.327 2°41.734 -999 24 14.8 101370 40
2011-04-20 13:34 51°25.158 2°41.927 -999 24 14.8 101380 40
2011-04-20 13:35 51°24.985 2°42.101 -999 24 14.7 101380 40
2011-04-20 13:36 51°24.822 2°42.309 -999 24 14.7 101380 40
2011-04-20 13:37 51°24.651 2°42.499 -999 24 14.6 101370 40
2011-04-20 13:38 51°24.485 2°42.709 -999 24 14.6 101370 40
2011-04-20 13:39 51°24.325 2°42.936 -999 24 14.6 101370 40
2011-04-20 13:40 51°24.152 2°43.128 -999 24 14.5 101370 41
2011-04-20 13:41 51°23.988 2°43.334 -999 24 14.4 101370 41
2011-04-20 13:42 51°23.825 2°43.548 -999 24 14.3 101370 41
2011-04-20 13:43 51°23.666 2°43.77 -999 24 14.3 101370 41
2011-04-20 13:44 51°23.499 2°43.977 -999 24 14.2 101370 42
2011-04-20 13:45 51°23.331 2°44.183 -999 24 14.3 101370 42
2011-04-20 13:46 51°23.163 2°44.391 -999 24 14.3 101370 41
2011-04-20 13:47 51°22.992 2°44.597 -999 24 14.4 101360 41
2011-04-20 13:48 51°22.82 2°44.801 -999 24 14.5 101360 41
2011-04-20 13:49 51°22.65 2°45.01 -999 24 14.5 101360 41
2011-04-20 13:50 51°22.477 2°45.211 -999 24 14.5 101360 41
2011-04-20 13:51 51°22.311 2°45.429 -999 24 14.5 101360 41
2011-04-20 13:52 51°22.141 2°45.637 -999 24 14.5 101360 41
2011-04-20 13:53 51°21.976 2°45.854 -999 24 14.4 101360 41
2011-04-20 13:54 51°21.826 2°46.091 -999 24 14.4 101350 41
2011-04-20 13:55 51°21.67 2°46.311 -999 24 14.5 101350 41
2011-04-20 13:56 51°21.515 2°46.539 -999 24 14.5 101350 41
2011-04-20 13:57 51°21.359 2°46.771 -999 24 14.6 101350 41
2011-04-20 13:58 51°21.199 2°46.999 -999 24 14.6 101350 41
2011-04-20 13:59 51°21.039 2°47.234 -999 24 14.6 101340 41
2011-04-20 14:00 51°20.87 2°47.456 -999 24 14.6 101340 41
2011-04-20 14:01 51°20.7 2°47.674 -999 24 14.5 101340 40
2011-04-20 14:02 51°20.522 2°47.874 -999 24 14.5 101340 41
2011-04-20 14:03 51°20.355 2°48.099 -999 24 14.6 101340 41
2011-04-20 14:04 51°20.188 2°48.324 -999 24 14.6 101340 41
2011-04-20 14:05 51°20.024 2°48.545 -999 24 14.7 101340 41
2011-04-20 14:06 51°19.862 2°48.763 -999 24 14.7 101340 41
2011-04-20 14:07 51°19.703 2°48.994 -999 24 14.8 101340 41
2011-04-20 14:08 51°19.562 2°49.263 -999 24 14.8 101330 41
2011-04-20 14:09 51°19.411 2°49.515 -999 24 14.8 101330 41
2011-04-20 14:10 51°19.254 2°49.757 -999 24 14.8 101330 41
2011-04-20 14:11 51°19.083 2°49.961 7.6 22 14.8 101330 40
2011-04-20 14:12 51°18.916 2°50.182 8 24 14.9 101330 41
2011-04-20 14:13 51°18.753 2°50.406 8.7 20 14.9 101330 40
2011-04-20 14:14 51°18.604 2°50.66 7.8 27 15 101320 40
2011-04-20 14:15 51°18.445 2°50.887 8.5 26 14.9 101330 40
2011-04-20 14:16 51°18.279 2°51.101 7.4 28 14.9 101330 41
2011-04-20 14:17 51°18.111 2°51.306 7 23 14.9 101320 41
2011-04-20 14:18 51°17.939 2°51.502 6.8 25 15 101330 41
2011-04-20 14:19 51°17.768 2°51.698 7.1 21 15.1 101330 40
2011-04-20 14:20 51°17.596 2°51.889 7 29 15.2 101330 41
2011-04-20 14:21 51°17.425 2°52.078 6.7 23 15.2 101330 41
2011-04-20 14:22 51°17.25 2°52.26 7 27 15.2 101320 41
2011-04-20 14:23 51°17.076 2°52.444 6 23 15.2 101330 41
2011-04-20 14:24 51°16.902 2°52.631 6.3 28 15.2 101320 40
2011-04-20 14:25 51°16.723 2°52.807 7.9 20 15.2 101320 41
2011-04-20 14:26 51°16.542 2°52.985 6.3 26 15.2 101320 41
2011-04-20 14:27 51°16.361 2°53.162 6 247 15.3 101320 39
2011-04-20 14:28 51°16.173 2°53.31 6 248 15.4 101320 40
2011-04-20 14:29 51°15.979 2°53.429 6 249 15.6 101330 40
2011-04-20 14:30 51°15.784 2°53.532 5.7 246 15.7 101320 40
2011-04-20 14:31 51°15.599 2°53.69 6 23 15.8 101320 40
2011-04-20 14:32 51°15.429 2°53.9 5.9 24 15.8 101310 39
2011-04-20 14:33 51°15.257 2°54.099 5.8 21 15.8 101320 40
2011-04-20 14:34 51°15.092 2°54.296 5 29 15.8 101320 40
2011-04-20 14:35 51°14.951 2°54.507 6.9 20 15.7 101310 39
2011-04-20 14:36 51°14.799 2°54.708 5.1 20 15.7 101310 40
2011-04-20 14:37 51°14.635 2°54.892 5.6 29 15.6 101320 41
2011-04-20 14:38 51°14.463 2°55.061 6.1 316 15.6 101320 41
2011-04-20 14:39 51°14.297 2°55.241 4.7 19 15.5 101320 40
2011-04-20 14:40 51°14.169 2°55.375 3.5 23 15.5 101320 42
2011-04-20 14:41 51°14.035 2°55.478 3 244 15.5 101320 41
2011-04-20 14:42 51°13.91 2°55.566 3.6 249 15.6 101320 42
2011-04-20 14:43 51°13.802 2°55.647 3.9 253 15.8 101320 40
2011-04-20 14:44 51°13.714 2°55.75 3.1 20 16.3 101320 38
2011-04-20 14:45 51°13.681 2°55.862 4.7 20 16.9 101320 36
2011-04-20 14:46 51°13.667 2°55.94 4.6 246 17.6 101310 36